createdAt,value
2022-08-12T00:03:02.074Z,8.1
2022-08-12T00:08:53.129Z,7
2022-08-12T00:14:45.184Z,7.2
2022-08-12T00:20:36.797Z,6
2022-08-12T00:26:29.502Z,7.8
2022-08-12T00:32:40.801Z,5.9
2022-08-12T00:38:44.248Z,6.2
2022-08-12T00:44:37.839Z,6.8
2022-08-12T00:50:29.450Z,5
2022-08-12T00:56:22.808Z,6.6
2022-08-12T01:02:16.992Z,5.8
2022-08-12T01:08:09.502Z,6.2
2022-08-12T01:13:59.995Z,7.7
2022-08-12T01:19:51.520Z,5.8
2022-08-12T01:26:00.537Z,8.1
2022-08-12T01:31:50.231Z,7.8
2022-08-12T01:37:41.273Z,6.1
2022-08-12T01:43:33.233Z,5.7
2022-08-12T01:49:26.594Z,6.5
2022-08-12T01:55:19.107Z,8.4
2022-08-12T02:01:10.520Z,5.3
2022-08-12T02:07:02.432Z,6.4
2022-08-12T02:12:53.981Z,6.2
2022-08-12T02:18:45.356Z,6
2022-08-12T02:24:36.441Z,6.5
2022-08-12T02:30:41.739Z,7.2
2022-08-12T02:36:37.647Z,7.5
2022-08-12T02:42:29.617Z,7.5
2022-08-12T02:48:21.572Z,5.7
2022-08-12T02:54:13.871Z,7.8
2022-08-12T03:00:05.229Z,6.1
2022-08-12T03:05:57.445Z,5.7
2022-08-12T03:11:56.284Z,7
2022-08-12T03:18:30.415Z,8
2022-08-12T03:24:19.466Z,10.1
2022-08-12T03:30:11.308Z,6.9
2022-08-12T03:36:02.885Z,8.6
2022-08-12T03:41:54.737Z,8.4
2022-08-12T03:47:50.031Z,7.2
2022-08-12T03:53:42.234Z,6.7
2022-08-12T03:59:33.641Z,6.1
2022-08-12T04:05:58.544Z,6.9
2022-08-12T04:11:51.914Z,8.3
2022-08-12T04:18:11.886Z,6.8
2022-08-12T04:24:00.976Z,7.1
2022-08-12T04:30:38.128Z,13
2022-08-12T04:36:27.064Z,7.8
2022-08-12T04:42:20.554Z,9.5
2022-08-12T04:48:13.390Z,8.7
2022-08-12T04:54:07.708Z,10.2
2022-08-12T05:00:00.444Z,8.9
2022-08-12T05:05:52.562Z,11
2022-08-12T05:12:02.565Z,12.8
2022-08-12T05:17:54.596Z,14.4
2022-08-12T05:23:49.795Z,12.6
2022-08-12T05:30:53.897Z,14.6
2022-08-12T05:36:48.813Z,15.4
2022-08-12T05:42:44.970Z,11
2022-08-12T05:48:44.830Z,13.1
2022-08-12T05:55:01.221Z,12.8
2022-08-12T06:00:52.316Z,13.9
2022-08-12T06:06:44.800Z,13.7
2022-08-12T06:12:37.343Z,12.4
2022-08-12T06:18:41.280Z,8.3
2022-08-12T06:24:32.998Z,11.2
2022-08-12T06:30:42.978Z,8.3
2022-08-12T06:36:46.153Z,9.2
2022-08-12T06:42:39.888Z,8.5
2022-08-12T06:48:29.720Z,7.2
2022-08-12T06:54:36.823Z,7.6
2022-08-12T07:00:36.196Z,6.4
2022-08-12T07:06:25.840Z,7.5
2022-08-12T07:12:17.467Z,7
2022-08-12T07:18:08.397Z,4.7
2022-08-12T07:23:59.435Z,5.7
2022-08-12T07:30:08.703Z,4.6
2022-08-12T07:35:59.869Z,6.2
2022-08-12T07:41:48.470Z,5.7
2022-08-12T07:47:38.913Z,6.3
2022-08-12T07:53:30.175Z,7.9
2022-08-12T07:59:22.477Z,9.5
2022-08-12T08:05:20.542Z,8.1
2022-08-12T08:11:16.705Z,6.5
2022-08-12T08:17:07.026Z,5.4
2022-08-12T08:23:04.882Z,9.2
2022-08-12T08:28:56.466Z,6.3
2022-08-12T08:35:00.394Z,7.4
2022-08-12T08:40:53.182Z,5.1
2022-08-12T08:46:45.954Z,5.1
2022-08-12T08:52:47.593Z,6.2
2022-08-12T08:58:40.947Z,5.8
2022-08-12T09:06:04.392Z,6.1
2022-08-12T09:12:28.945Z,6
2022-08-12T09:18:35.148Z,5.1
2022-08-12T09:24:44.854Z,8.6
2022-08-12T09:31:00.983Z,7.8
2022-08-12T09:38:06.571Z,4.3
2022-08-12T09:44:47.749Z,3.7
2022-08-12T09:51:43.498Z,6.9
2022-08-12T09:59:03.645Z,4.1
2022-08-12T10:04:57.721Z,4.6
2022-08-12T10:10:54.276Z,3.4
2022-08-12T10:17:10.609Z,4
2022-08-12T10:23:05.669Z,7.3
2022-08-12T10:30:58.209Z,4.4
2022-08-12T10:36:57.335Z,6.3
2022-08-12T10:43:22.402Z,3.8
2022-08-12T10:51:49.063Z,6.6
2022-08-12T10:58:37.480Z,7.3
2022-08-12T11:05:00.009Z,6.7
2022-08-12T11:15:00.593Z,4.5
2022-08-12T11:21:39.566Z,4
2022-08-12T11:27:57.023Z,7.7
2022-08-12T11:35:00.929Z,3.4
2022-08-12T11:40:51.563Z,5.4
2022-08-12T11:46:41.379Z,5.9
2022-08-12T11:54:14.772Z,5.8
2022-08-12T12:02:06.369Z,3.2
2022-08-12T12:08:55.757Z,3.6
2022-08-12T12:15:09.507Z,4.5
2022-08-12T12:21:08.294Z,3.3
2022-08-12T12:27:07.802Z,3.8
2022-08-12T12:33:08.177Z,5
2022-08-12T12:39:13.661Z,3.3
2022-08-12T12:45:33.842Z,4.6
2022-08-12T12:52:26.847Z,9
2022-08-12T12:58:16.514Z,4.8
2022-08-12T13:04:16.274Z,4.5
2022-08-12T13:10:14.855Z,2.9
2022-08-12T13:16:05.046Z,2.8
2022-08-12T13:22:25.436Z,3.3
2022-08-12T13:28:17.739Z,4
2022-08-12T13:34:40.808Z,4.6
2022-08-12T13:40:33.179Z,3.4
2022-08-12T13:46:24.269Z,3.4
2022-08-12T13:52:16.979Z,5.4
2022-08-12T13:58:20.278Z,6.1
2022-08-12T14:04:19.761Z,3.5
2022-08-12T14:10:18.097Z,5.4
2022-08-12T14:16:15.815Z,5.1
2022-08-12T14:22:53.381Z,4.8
2022-08-12T14:30:31.277Z,3.1
2022-08-12T14:36:23.202Z,5.6
2022-08-12T14:42:16.055Z,3.6
2022-08-12T14:48:07.821Z,7.8
2022-08-12T14:58:02.681Z,6.2
2022-08-12T15:04:05.017Z,6.3
2022-08-12T15:09:53.224Z,3.5
2022-08-12T15:15:50.855Z,6
2022-08-12T15:22:59.588Z,4.5
2022-08-12T15:28:59.224Z,4.4
2022-08-12T15:34:56.772Z,4
2022-08-12T15:40:53.686Z,3.1
2022-08-12T15:46:47.048Z,7.2
2022-08-12T15:52:40.554Z,4.1
2022-08-12T15:58:38.398Z,4.8
2022-08-12T16:04:32.169Z,5.4
2022-08-12T16:10:37.069Z,3.7
2022-08-12T16:16:37.334Z,4.1
2022-08-12T16:22:33.186Z,3.9
2022-08-12T16:28:34.125Z,4.1
2022-08-12T16:35:01.718Z,5.3
2022-08-12T16:42:02.993Z,6.3
2022-08-12T16:51:27.768Z,5.5
2022-08-12T16:57:44.169Z,4.4
2022-08-12T17:03:56.350Z,6.6
2022-08-12T17:09:47.470Z,8.4
2022-08-12T17:16:20.987Z,4.9
2022-08-12T17:22:24.205Z,8.7
2022-08-12T17:28:24.361Z,5.2
2022-08-12T17:34:25.560Z,3.9
2022-08-12T17:40:44.223Z,3
2022-08-12T17:46:38.038Z,3.7
2022-08-12T17:52:38.634Z,5.9
2022-08-12T17:58:51.375Z,3.9
2022-08-12T18:05:14.688Z,5.5
2022-08-12T18:12:10.162Z,5
2022-08-12T18:18:05.670Z,2.8
2022-08-12T18:24:31.277Z,4.5
2022-08-12T18:30:34.551Z,5
2022-08-12T18:36:28.368Z,3.5
2022-08-12T18:42:19.962Z,3
2022-08-12T18:48:11.223Z,5.1
2022-08-12T18:54:13.003Z,4.4
2022-08-12T19:00:14.732Z,4.1
2022-08-12T19:06:06.110Z,3.7
2022-08-12T19:12:06.234Z,7.3
2022-08-12T19:18:07.239Z,5.3
2022-08-12T19:24:05.964Z,4.4
2022-08-12T19:30:14.557Z,6.1
2022-08-12T19:36:30.396Z,4
2022-08-12T19:42:30.872Z,5.3
2022-08-12T19:48:22.385Z,6.3
2022-08-12T19:54:20.936Z,5.1
2022-08-12T20:00:12.997Z,4.6
2022-08-12T20:06:28.392Z,6
2022-08-12T20:13:17.793Z,6.3
2022-08-12T20:19:28.459Z,6.3
2022-08-12T20:26:13.537Z,5.8
2022-08-12T20:32:11.034Z,5.8
2022-08-12T20:38:34.677Z,6.2
2022-08-12T20:44:25.332Z,7.7
2022-08-12T20:50:16.562Z,5.5
2022-08-12T20:56:21.375Z,5.7
2022-08-12T21:02:31.768Z,7.7
2022-08-12T21:08:28.339Z,4.2
2022-08-12T21:14:55.673Z,6.2
2022-08-12T21:21:04.531Z,8.3
2022-08-12T21:27:07.339Z,4.9
2022-08-12T21:33:14.667Z,6.8
2022-08-12T21:39:38.002Z,7.6
2022-08-12T21:46:06.478Z,8.9
2022-08-12T21:52:42.353Z,5.2
2022-08-12T21:58:38.432Z,7.9
2022-08-12T22:04:31.642Z,6.1
2022-08-12T22:10:34.217Z,5
2022-08-12T22:16:48.619Z,5.5
2022-08-12T22:22:40.671Z,5.7
2022-08-12T22:28:49.118Z,6.7
2022-08-12T22:34:46.246Z,6.8
2022-08-12T22:40:39.883Z,6.9
2022-08-12T22:46:35.141Z,5.5
2022-08-12T22:52:35.165Z,5.3
2022-08-12T22:58:35.449Z,6.6
2022-08-12T23:04:40.874Z,5.9
2022-08-12T23:10:39.202Z,5
2022-08-12T23:16:45.512Z,4
2022-08-12T23:23:02.969Z,5.9
2022-08-12T23:28:58.999Z,5.1
2022-08-12T23:35:54.185Z,6.3
2022-08-12T23:42:32.223Z,4.7
2022-08-12T23:48:34.847Z,5.1
2022-08-12T23:55:24.260Z,5
